aviador You're here:

KRST Decoded Metar

ROCHESTER in MN, USA
Report Time2017-11-24 08:54:00
UTC Time2017-11-24 09:12:36
Flight Rules vfr VFR
Wind200° at 18 kt
W.Decomp.*RWY 20: 18.0 kt HW 0.3 kt LCW
RWY 13: 6.5 kt HW 16.8 kt RCW
W.Rank200° ranks 10
Current wind is above 200° avg. (10.2)
Visibility9999 m
Phenomena:N/A
Clouds:N/A
Expected CloudBase > 1,600 ft AGL from Temp-Dew spread
CeilingNone
Temp06°C (ISA -6)
Dew Point02°C (76% RH)
AAT-2.1°C
QNH1001 hPa
Density Alt1,066 ft
Elevation1,322 ft
Report Wrong Elevation
Raw Report
KRST 240854Z AUTO 20018KT 10SM CLR 06/02 A2956 RMK AO2 PK WND
20026/0807 SLP016 T00610017 56027=

Extra information for KRST:More info

Metar Taf Metar & Taf Last 4 Metars F.Rules Stats Wind Profile Meteogram Temp Stats Airport Information Weather charts Add Link Nearby VenuesMetar ALERT Operation Metar Decoded Social comments

AIRNAV info for KRST